Time;durP1;ratioP1;P1;durP2;ratioP2;P2;SDS_P1;SDS_P2;PMS_P1;PMS_P2;Temp;Humidity;BMP_temperature;BMP_pressure;BME280_temperature;BME280_humidity;BME280_pressure;Samples;Min_cycle;Max_cycle;Signal;HPM_P1;HPM_P2
2023/10/15 00:01:32;;;;;;;4.57;2.10;;;;;;;;;;5067527;28;20204;-56
2023/10/15 00:03:58;;;;;;;3.00;2.40;;;;;;;;;;5067284;28;20502;-55
2023/10/15 00:06:24;;;;;;;3.60;2.23;;;;;;;;;;5067867;28;20181;-55
2023/10/15 00:08:51;;;;;;;3.87;2.17;;;;;;;;;;5066258;28;20198;-56
2023/10/15 00:11:23;;;;;;;3.33;1.90;;;;;;;;;;5068199;28;20184;-56
2023/10/15 00:13:49;;;;;;;2.40;2.20;;;;;;;;;;5066906;28;20636;-55
2023/10/15 00:16:19;;;;;;;5.93;2.27;;;;;;;;;;5067962;28;20273;-56
2023/10/15 00:18:45;;;;;;;4.73;2.40;;;;;;;;;;5064072;28;20184;-55
2023/10/15 00:21:14;;;;;;;6.07;2.10;;;;;;;;;;5068692;28;20704;-56
2023/10/15 00:23:42;;;;;;;2.83;2.10;;;;;;;;;;5063014;28;20626;-55
2023/10/15 00:26:10;;;;;;;3.87;2.87;;;;;;;;;;5067323;28;20670;-56
2023/10/15 00:28:39;;;;;;;3.93;2.20;;;;;;;;;;5065785;28;20186;-56
2023/10/15 00:31:09;;;;;;;4.13;2.17;;;;;;;;;;5067873;28;20370;-56
2023/10/15 00:33:37;;;;;;;3.10;2.60;;;;;;;;;;5061781;28;20177;-55
2023/10/15 00:36:06;;;;;;;2.30;2.10;;;;;;;;;;5066691;28;20668;-56
2023/10/15 00:38:36;;;;;;;2.80;2.00;;;;;;;;;;5065964;28;20239;-56
2023/10/15 00:41:09;;;;;;;3.60;2.30;;;;;;;;;;5067828;28;20208;-55
2023/10/15 00:43:35;;;;;;;2.97;2.23;;;;;;;;;;5065828;28;20176;-56
2023/10/15 00:46:03;;;;;;;3.87;2.30;;;;;;;;;;5066040;28;20642;-56
2023/10/15 00:48:36;;;;;;;3.13;2.30;;;;;;;;;;5066112;28;20263;-56
2023/10/15 00:51:11;;;;;;;2.90;2.40;;;;;;;;;;5062882;28;20176;-56
2023/10/15 00:53:47;;;;;;;3.23;2.10;;;;;;;;;;5066310;28;20653;-56
2023/10/15 00:56:14;;;;;;;3.03;2.20;;;;;;;;;;5067192;28;20294;-56
2023/10/15 01:03:48;;;;;;;4.17;2.43;;;;;;;;;;5063267;28;20543;-56
2023/10/15 01:09:08;;;;;;;2.83;1.90;;;;;;;;;;5062645;28;20241;-55
2023/10/15 01:11:36;;;;;;;2.70;1.93;;;;;;;;;;5067790;28;20671;-55
2023/10/15 01:14:02;;;;;;;2.87;2.03;;;;;;;;;;5065124;28;20188;-55
2023/10/15 01:16:31;;;;;;;5.77;2.30;;;;;;;;;;5064960;28;20573;-55
2023/10/15 01:19:07;;;;;;;2.90;1.90;;;;;;;;;;5064818;28;20652;-55
2023/10/15 01:21:42;;;;;;;3.50;2.10;;;;;;;;;;5064790;28;20585;-55
2023/10/15 01:24:08;;;;;;;3.87;1.67;;;;;;;;;;5065879;28;20172;-56
2023/10/15 01:26:37;;;;;;;3.67;3.07;;;;;;;;;;5061955;28;20184;-55
2023/10/15 01:29:06;;;;;;;3.60;2.10;;;;;;;;;;5065932;28;20710;-55
2023/10/15 01:31:41;;;;;;;5.00;2.30;;;;;;;;;;5060861;28;20185;-56
2023/10/15 01:34:09;;;;;;;3.40;2.20;;;;;;;;;;5065783;28;20180;-56
2023/10/15 01:36:38;;;;;;;2.67;2.37;;;;;;;;;;5065523;28;20230;-56
2023/10/15 01:39:12;;;;;;;2.73;2.17;;;;;;;;;;5069104;28;20184;-56
2023/10/15 01:41:42;;;;;;;2.93;2.07;;;;;;;;;;5072708;28;20214;-56
2023/10/15 01:44:11;;;;;;;2.10;1.83;;;;;;;;;;5072311;28;20204;-56
2023/10/15 01:47:07;;;;;;;4.00;2.23;;;;;;;;;;5072254;28;20196;-56
2023/10/15 01:49:33;;;;;;;2.53;2.03;;;;;;;;;;5072047;28;20948;-56
2023/10/15 01:52:09;;;;;;;2.67;1.93;;;;;;;;;;5072369;28;20177;-56
2023/10/15 01:54:38;;;;;;;3.80;2.77;;;;;;;;;;5071587;28;20178;-56
2023/10/15 01:57:07;;;;;;;4.43;2.30;;;;;;;;;;5071774;28;20197;-56
2023/10/15 01:59:45;;;;;;;4.17;2.70;;;;;;;;;;5087859;28;20192;-56
2023/10/15 02:02:13;;;;;;;3.37;2.10;;;;;;;;;;5070100;28;20279;-56
2023/10/15 02:04:46;;;;;;;2.70;2.43;;;;;;;;;;5070058;28;20255;-56
2023/10/15 02:07:19;;;;;;;5.93;2.93;;;;;;;;;;5071663;28;20331;-55
2023/10/15 02:09:46;;;;;;;5.10;2.50;;;;;;;;;;5071640;28;20610;-56
2023/10/15 02:12:18;;;;;;;3.57;2.73;;;;;;;;;;5072306;28;20259;-58
2023/10/15 02:14:44;;;;;;;2.70;2.27;;;;;;;;;;5070952;28;20638;-56
2023/10/15 02:17:18;;;;;;;4.47;2.60;;;;;;;;;;5069814;28;20238;-56
2023/10/15 02:19:44;;;;;;;3.87;2.70;;;;;;;;;;5072826;28;20209;-59
2023/10/15 02:22:14;;;;;;;2.63;2.40;;;;;;;;;;5070758;28;20181;-56
2023/10/15 02:24:47;;;;;;;3.07;2.63;;;;;;;;;;5071632;28;20228;-55
2023/10/15 02:27:24;;;;;;;3.17;2.10;;;;;;;;;;5072610;28;20198;-56
2023/10/15 02:29:51;;;;;;;3.23;2.70;;;;;;;;;;5072964;28;20255;-56
2023/10/15 02:34:54;;;;;;;2.90;2.70;;;;;;;;;;5066174;28;20684;-56
2023/10/15 02:37:26;;;;;;;3.30;2.37;;;;;;;;;;5071939;28;20210;-56
2023/10/15 02:39:52;;;;;;;4.77;2.63;;;;;;;;;;5071985;28;20639;-55
2023/10/15 02:42:19;;;;;;;3.50;2.87;;;;;;;;;;5072472;28;20497;-56
2023/10/15 02:44:50;;;;;;;3.83;2.83;;;;;;;;;;5070979;28;20190;-56
2023/10/15 02:47:28;;;;;;;2.80;2.60;;;;;;;;;;5071162;28;20548;-55
2023/10/15 02:50:00;;;;;;;3.20;2.63;;;;;;;;;;5067623;28;20178;-55
2023/10/15 02:52:26;;;;;;;3.57;2.97;;;;;;;;;;5067459;28;20186;-56
2023/10/15 02:54:55;;;;;;;4.13;3.03;;;;;;;;;;5068548;28;20271;-56
2023/10/15 02:57:21;;;;;;;4.43;2.60;;;;;;;;;;5068529;28;20212;-56
2023/10/15 02:59:50;;;;;;;4.03;2.80;;;;;;;;;;5069571;28;20591;-55
2023/10/15 03:02:20;;;;;;;5.43;2.80;;;;;;;;;;5069312;28;20547;-56
2023/10/15 03:04:51;;;;;;;7.53;3.00;;;;;;;;;;5069396;28;20173;-55
2023/10/15 03:07:18;;;;;;;3.27;2.70;;;;;;;;;;5065802;28;20200;-55
2023/10/15 03:09:52;;;;;;;3.37;2.80;;;;;;;;;;5068168;28;20670;-55
2023/10/15 03:12:33;;;;;;;4.93;3.50;;;;;;;;;;5068021;28;20638;-55
2023/10/15 03:15:00;;;;;;;3.00;2.70;;;;;;;;;;5069245;28;20184;-55
2023/10/15 03:17:29;;;;;;;3.67;2.83;;;;;;;;;;5067899;28;20308;-55
2023/10/15 03:19:56;;;;;;;4.53;2.83;;;;;;;;;;5067875;28;20181;-55
2023/10/15 03:22:25;;;;;;;5.60;2.70;;;;;;;;;;5065573;28;20521;-55
2023/10/15 03:24:53;;;;;;;11.80;3.37;;;;;;;;;;5068427;28;20680;-55
2023/10/15 03:27:23;;;;;;;3.47;2.70;;;;;;;;;;5066450;28;20242;-55
2023/10/15 03:29:50;;;;;;;4.33;2.97;;;;;;;;;;5065728;28;20235;-55
2023/10/15 03:32:16;;;;;;;5.33;3.07;;;;;;;;;;5068402;28;20192;-54
2023/10/15 03:34:59;;;;;;;4.60;3.50;;;;;;;;;;5069629;28;20269;-54
2023/10/15 03:37:27;;;;;;;4.43;3.63;;;;;;;;;;5066913;28;20232;-54
2023/10/15 03:39:55;;;;;;;7.70;3.30;;;;;;;;;;5068532;28;20188;-54
2023/10/15 03:42:26;;;;;;;4.50;3.10;;;;;;;;;;5068597;28;20275;-54
2023/10/15 03:45:01;;;;;;;4.20;3.13;;;;;;;;;;5069708;28;20237;-54
2023/10/15 03:47:27;;;;;;;6.17;3.13;;;;;;;;;;5068374;28;20188;-54
2023/10/15 03:49:55;;;;;;;8.03;3.40;;;;;;;;;;5068605;28;20195;-54
2023/10/15 03:52:22;;;;;;;3.50;2.77;;;;;;;;;;5067333;28;20216;-54
2023/10/15 03:54:51;;;;;;;4.87;3.10;;;;;;;;;;5068677;28;20188;-54
2023/10/15 03:57:17;;;;;;;6.17;2.60;;;;;;;;;;5066635;28;20216;-54
2023/10/15 03:59:53;;;;;;;5.60;2.67;;;;;;;;;;5066621;28;20223;-54
2023/10/15 04:02:45;;;;;;;4.73;3.83;;;;;;;;;;5066073;28;20176;-54
2023/10/15 04:05:13;;;;;;;6.43;3.57;;;;;;;;;;5068387;28;20689;-54
2023/10/15 04:07:46;;;;;;;2.90;2.30;;;;;;;;;;5065775;28;20321;-54
2023/10/15 04:10:12;;;;;;;4.33;3.57;;;;;;;;;;5067848;28;20225;-54
2023/10/15 04:12:44;;;;;;;5.17;2.93;;;;;;;;;;5067377;28;20209;-54
2023/10/15 04:15:14;;;;;;;5.40;2.63;;;;;;;;;;5068433;28;20184;-54
2023/10/15 04:17:41;;;;;;;20.80;3.27;;;;;;;;;;5065574;28;20250;-54
2023/10/15 04:20:07;;;;;;;5.23;2.10;;;;;;;;;;5066336;28;20264;-54
2023/10/15 04:22:39;;;;;;;4.83;2.27;;;;;;;;;;5065868;28;20216;-54
2023/10/15 04:25:06;;;;;;;5.40;2.40;;;;;;;;;;5066454;28;20620;-54
2023/10/15 04:27:34;;;;;;;3.50;2.30;;;;;;;;;;5064870;28;20488;-54
2023/10/15 04:30:01;;;;;;;2.47;2.27;;;;;;;;;;5067102;28;20578;-54
2023/10/15 04:32:45;;;;;;;3.90;2.63;;;;;;;;;;5065378;28;20192;-54
2023/10/15 04:35:15;;;;;;;2.73;2.53;;;;;;;;;;5066830;28;20180;-54
2023/10/15 04:37:44;;;;;;;3.43;2.33;;;;;;;;;;5064534;28;20209;-55
2023/10/15 04:40:11;;;;;;;5.97;2.10;;;;;;;;;;5068272;28;20529;-54
2023/10/15 04:42:48;;;;;;;2.17;1.97;;;;;;;;;;5066873;28;20184;-54
2023/10/15 04:45:22;;;;;;;2.57;2.10;;;;;;;;;;5067135;28;20207;-54
2023/10/15 04:47:52;;;;;;;2.80;2.07;;;;;;;;;;5066335;28;20253;-54
2023/10/15 04:50:18;;;;;;;2.13;1.90;;;;;;;;;;5065676;28;20635;-54
2023/10/15 04:52:44;;;;;;;4.23;1.93;;;;;;;;;;5070409;28;20701;-54
2023/10/15 04:55:13;;;;;;;4.73;2.20;;;;;;;;;;5067579;28;20610;-54
2023/10/15 04:57:39;;;;;;;3.70;2.03;;;;;;;;;;5065042;28;20276;-55
2023/10/15 05:00:06;;;;;;;5.57;1.90;;;;;;;;;;5066536;28;20508;-57
2023/10/15 05:02:33;;;;;;;2.73;2.03;;;;;;;;;;5063963;28;20187;-54
2023/10/15 05:05:06;;;;;;;2.67;1.80;;;;;;;;;;5061298;28;20185;-54
2023/10/15 05:07:32;;;;;;;2.47;1.87;;;;;;;;;;5065474;28;20769;-54
2023/10/15 05:09:59;;;;;;;2.77;1.70;;;;;;;;;;5066459;28;20977;-54
2023/10/15 05:12:26;;;;;;;3.97;2.10;;;;;;;;;;5066506;28;20180;-54
2023/10/15 05:14:53;;;;;;;2.20;1.80;;;;;;;;;;5066935;28;20180;-55
2023/10/15 05:17:20;;;;;;;2.10;1.43;;;;;;;;;;5064851;28;20547;-54
2023/10/15 05:19:54;;;;;;;5.20;2.07;;;;;;;;;;5066536;28;20504;-55
2023/10/15 05:22:20;;;;;;;3.37;1.60;;;;;;;;;;5066291;28;20698;-54
2023/10/15 05:24:46;;;;;;;1.70;1.50;;;;;;;;;;5065335;28;20180;-55
2023/10/15 05:27:12;;;;;;;2.23;1.60;;;;;;;;;;5065097;28;20670;-54
2023/10/15 05:29:42;;;;;;;2.47;1.67;;;;;;;;;;5066371;28;20311;-54
2023/10/15 05:32:08;;;;;;;1.87;1.73;;;;;;;;;;5065133;28;20223;-54
2023/10/15 05:34:34;;;;;;;1.77;1.67;;;;;;;;;;5066228;28;20203;-54
2023/10/15 05:37:03;;;;;;;1.63;1.43;;;;;;;;;;5065695;28;20196;-54
2023/10/15 05:39:29;;;;;;;2.37;1.73;;;;;;;;;;5066263;28;20180;-55
2023/10/15 05:41:55;;;;;;;2.80;1.87;;;;;;;;;;5065982;28;20177;-54
2023/10/15 05:44:21;;;;;;;2.53;2.33;;;;;;;;;;5065611;28;20184;-54
2023/10/15 05:46:47;;;;;;;2.67;1.70;;;;;;;;;;5066080;28;20565;-54
2023/10/15 05:49:13;;;;;;;1.97;1.60;;;;;;;;;;5065714;28;20176;-54
2023/10/15 05:51:39;;;;;;;3.30;2.33;;;;;;;;;;5064541;28;20210;-54
2023/10/15 05:54:09;;;;;;;2.30;1.80;;;;;;;;;;5066247;28;20500;-54
2023/10/15 05:56:35;;;;;;;3.37;1.73;;;;;;;;;;5060526;28;20243;-54
2023/10/15 05:59:01;;;;;;;2.23;1.40;;;;;;;;;;5063202;28;20236;-54
2023/10/15 06:01:27;;;;;;;1.73;1.30;;;;;;;;;;5063741;28;20606;-54
2023/10/15 06:03:53;;;;;;;1.97;1.30;;;;;;;;;;5064273;28;20192;-54
2023/10/15 06:06:19;;;;;;;2.07;1.20;;;;;;;;;;5065310;28;20279;-54
2023/10/15 06:08:45;;;;;;;2.03;1.20;;;;;;;;;;5064013;28;20235;-54
2023/10/15 06:11:12;;;;;;;1.47;1.30;;;;;;;;;;5065132;28;20565;-54
2023/10/15 06:13:38;;;;;;;1.40;1.30;;;;;;;;;;5064915;28;20205;-54
2023/10/15 06:16:04;;;;;;;1.37;1.27;;;;;;;;;;5064690;28;20219;-54
2023/10/15 06:18:30;;;;;;;2.40;1.20;;;;;;;;;;5063400;28;20645;-54
2023/10/15 06:20:56;;;;;;;1.37;1.27;;;;;;;;;;5059352;28;20222;-54
2023/10/15 06:23:22;;;;;;;1.57;1.30;;;;;;;;;;5063510;28;20184;-54
2023/10/15 06:25:49;;;;;;;1.33;1.23;;;;;;;;;;5067282;28;20246;-54
2023/10/15 06:28:15;;;;;;;1.47;1.00;;;;;;;;;;5066988;28;20653;-54
2023/10/15 06:30:43;;;;;;;1.40;1.13;;;;;;;;;;5064719;28;20307;-54
2023/10/15 06:33:09;;;;;;;1.77;1.67;;;;;;;;;;5069405;28;20216;-54
2023/10/15 06:35:35;;;;;;;4.50;1.77;;;;;;;;;;5070181;28;20237;-54
2023/10/15 06:38:01;;;;;;;1.40;1.30;;;;;;;;;;5066479;28;20180;-54
2023/10/15 06:40:28;;;;;;;1.37;1.00;;;;;;;;;;5067845;28;20792;-55
2023/10/15 06:43:00;;;;;;;1.83;1.40;;;;;;;;;;5066173;28;20229;-54
2023/10/15 06:45:27;;;;;;;1.53;1.20;;;;;;;;;;5066853;28;20179;-54
2023/10/15 06:47:53;;;;;;;1.30;1.20;;;;;;;;;;5068333;28;20220;-54
2023/10/15 06:50:20;;;;;;;1.63;1.40;;;;;;;;;;5067372;28;20713;-54
2023/10/15 06:52:46;;;;;;;0.90;0.90;;;;;;;;;;5066598;28;20494;-54
2023/10/15 06:55:19;;;;;;;1.57;1.27;;;;;;;;;;5067475;28;20660;-55
2023/10/15 06:57:46;;;;;;;1.73;1.30;;;;;;;;;;5065816;28;20216;-55
2023/10/15 07:00:12;;;;;;;1.30;1.20;;;;;;;;;;5069175;28;20188;-55
2023/10/15 07:02:39;;;;;;;3.20;1.30;;;;;;;;;;5068558;28;20560;-55
2023/10/15 07:05:05;;;;;;;1.60;1.50;;;;;;;;;;5065793;28;20176;-55
2023/10/15 07:07:33;;;;;;;1.27;1.17;;;;;;;;;;5071939;28;20191;-55
2023/10/15 07:10:06;;;;;;;1.40;1.30;;;;;;;;;;5068386;28;20188;-55
2023/10/15 07:12:33;;;;;;;1.43;1.33;;;;;;;;;;5069301;28;20191;-55
2023/10/15 07:14:59;;;;;;;1.23;1.20;;;;;;;;;;5068230;28;20195;-55
2023/10/15 07:17:25;;;;;;;3.00;1.40;;;;;;;;;;5067784;28;20212;-55
2023/10/15 07:19:51;;;;;;;1.73;1.23;;;;;;;;;;5065703;28;20180;-55
2023/10/15 07:22:17;;;;;;;2.03;1.23;;;;;;;;;;5067482;28;20212;-55
2023/10/15 07:24:43;;;;;;;1.53;1.40;;;;;;;;;;5058872;28;20213;-55
2023/10/15 07:27:09;;;;;;;1.50;1.40;;;;;;;;;;5065955;28;20196;-55
2023/10/15 07:29:35;;;;;;;1.60;1.50;;;;;;;;;;5068500;28;20848;-55
2023/10/15 07:32:01;;;;;;;3.37;1.50;;;;;;;;;;5063395;28;20243;-56
2023/10/15 07:34:27;;;;;;;1.40;1.30;;;;;;;;;;5068420;28;20644;-55
2023/10/15 07:36:57;;;;;;;1.40;1.20;;;;;;;;;;5060920;28;20574;-58
2023/10/15 07:39:24;;;;;;;2.80;1.50;;;;;;;;;;5064208;28;20204;-57
2023/10/15 07:41:50;;;;;;;2.23;1.30;;;;;;;;;;5066869;28;20206;-58
2023/10/15 07:44:16;;;;;;;2.20;1.67;;;;;;;;;;5059806;28;20294;-58
2023/10/15 07:46:46;;;;;;;1.40;1.30;;;;;;;;;;5063172;28;20188;-58
2023/10/15 07:49:12;;;;;;;1.27;1.03;;;;;;;;;;5064051;28;20181;-58
2023/10/15 07:51:39;;;;;;;1.50;1.10;;;;;;;;;;5063965;28;20187;-58
2023/10/15 07:54:06;;;;;;;1.50;1.40;;;;;;;;;;5066856;28;20184;-58
2023/10/15 07:56:34;;;;;;;2.20;1.30;;;;;;;;;;5068176;28;20215;-58
2023/10/15 07:59:01;;;;;;;1.50;1.40;;;;;;;;;;5066599;28;20238;-59
2023/10/15 08:01:27;;;;;;;3.33;1.63;;;;;;;;;;5068860;28;20212;-59
2023/10/15 08:03:55;;;;;;;1.50;1.40;;;;;;;;;;5067083;28;20223;-63
2023/10/15 08:06:23;;;;;;;3.83;1.70;;;;;;;;;;5066840;28;20476;-58
2023/10/15 08:08:50;;;;;;;1.93;1.73;;;;;;;;;;5066198;28;20203;-58
2023/10/15 08:11:16;;;;;;;2.10;1.50;;;;;;;;;;5067967;28;20189;-58
2023/10/15 08:13:42;;;;;;;2.23;1.53;;;;;;;;;;5067552;28;20652;-58
2023/10/15 08:16:08;;;;;;;3.07;1.63;;;;;;;;;;5068576;28;20208;-57
2023/10/15 08:18:34;;;;;;;2.37;1.53;;;;;;;;;;5061557;28;20189;-56
2023/10/15 08:21:00;;;;;;;7.73;1.83;;;;;;;;;;5067635;28;20189;-56
2023/10/15 08:23:27;;;;;;;23.87;4.00;;;;;;;;;;5067796;28;20248;-56
2023/10/15 08:25:54;;;;;;;40.13;4.43;;;;;;;;;;5069247;28;20233;-56
2023/10/15 08:28:21;;;;;;;34.33;5.00;;;;;;;;;;5066334;28;20533;-56
2023/10/15 08:30:47;;;;;;;1.97;1.33;;;;;;;;;;5067988;28;20228;-56
2023/10/15 08:33:13;;;;;;;2.13;1.47;;;;;;;;;;5068743;28;20177;-61
2023/10/15 08:35:42;;;;;;;2.73;1.60;;;;;;;;;;5068379;28;20207;-61
2023/10/15 08:38:09;;;;;;;1.30;1.20;;;;;;;;;;5065230;28;20546;-60
2023/10/15 08:40:39;;;;;;;4.47;1.43;;;;;;;;;;5067297;28;20195;-60
2023/10/15 08:43:11;;;;;;;14.53;2.90;;;;;;;;;;5061095;28;20606;-59
2023/10/15 08:45:38;;;;;;;27.93;5.03;;;;;;;;;;5063416;28;20177;-61
2023/10/15 08:48:09;;;;;;;3.87;1.70;;;;;;;;;;5065750;28;20521;-60
2023/10/15 08:50:36;;;;;;;2.43;1.60;;;;;;;;;;5068614;28;20180;-61
2023/10/15 08:53:04;;;;;;;2.53;1.83;;;;;;;;;;5067220;28;20272;-60
2023/10/15 08:55:33;;;;;;;4.73;1.80;;;;;;;;;;5066062;28;20268;-60
2023/10/15 08:57:59;;;;;;;2.00;1.50;;;;;;;;;;5067011;28;20277;-61
2023/10/15 09:00:25;;;;;;;2.60;1.63;;;;;;;;;;5061254;28;20176;-60
2023/10/15 09:03:00;;;;;;;1.73;1.60;;;;;;;;;;5063830;28;20274;-61
2023/10/15 09:05:26;;;;;;;1.90;1.20;;;;;;;;;;5060946;28;20187;-61
2023/10/15 09:07:55;;;;;;;3.53;1.67;;;;;;;;;;5061413;28;20090;-61
2023/10/15 09:10:22;;;;;;;3.37;1.80;;;;;;;;;;5066263;28;20173;-61
2023/10/15 09:12:48;;;;;;;2.13;1.50;;;;;;;;;;5067423;28;20350;-59
2023/10/15 09:15:17;;;;;;;2.10;1.47;;;;;;;;;;5062754;28;20180;-60
2023/10/15 09:17:55;;;;;;;1.50;1.23;;;;;;;;;;5061106;28;20245;-57
2023/10/15 09:20:32;;;;;;;2.10;1.50;;;;;;;;;;5062996;28;20168;-57
2023/10/15 09:22:59;;;;;;;2.90;1.80;;;;;;;;;;5064641;28;20405;-59
2023/10/15 09:25:31;;;;;;;4.23;1.33;;;;;;;;;;5064821;28;20181;-58
2023/10/15 09:27:59;;;;;;;2.70;1.40;;;;;;;;;;5063437;28;20486;-58
2023/10/15 09:30:25;;;;;;;;;;;;;;;;;;5064326;28;20056;-58
2023/10/15 09:32:50;;;;;;;;;;;;;;;;;;5062635;28;20450;-58
2023/10/15 09:35:17;;;;;;;3.08;1.70;;;;;;;;;;5062262;28;20871;-58
2023/10/15 09:37:46;;;;;;;2.57;1.90;;;;;;;;;;5063368;28;20675;-58
2023/10/15 09:40:24;;;;;;;2.57;1.83;;;;;;;;;;5064112;28;20172;-59
2023/10/15 09:42:53;;;;;;;;;;;;;;;;;;5061124;28;20211;-57
2023/10/15 09:45:19;;;;;;;4.40;1.80;;;;;;;;;;5064040;28;20272;-57
2023/10/15 09:47:52;;;;;;;2.07;1.70;;;;;;;;;;5065383;28;20176;-58
2023/10/15 09:50:25;;;;;;;3.70;1.60;;;;;;;;;;5060813;28;20173;-58
2023/10/15 09:53:00;;;;;;;1.50;1.30;;;;;;;;;;5052753;28;20494;-58
2023/10/15 09:55:27;;;;;;;2.13;1.63;;;;;;;;;;5061481;28;20187;-57
2023/10/15 09:57:55;;;;;;;5.37;3.37;;;;;;;;;;5057917;28;20231;-58
2023/10/15 10:00:32;;;;;;;2.17;1.70;;;;;;;;;;5064868;28;20344;-59
2023/10/15 10:03:11;;;;;;;2.93;1.73;;;;;;;;;;5067373;28;20185;-59
2023/10/15 10:05:49;;;;;;;2.00;1.70;;;;;;;;;;5071003;28;20179;-58
2023/10/15 10:08:44;;;;;;;2.80;1.57;;;;;;;;;;5067521;28;20212;-59
2023/10/15 10:11:37;;;;;;;3.03;1.67;;;;;;;;;;5025480;28;20196;-59
2023/10/15 10:14:03;;;;;;;;;;;;;;;;;;5065651;28;20262;-59
2023/10/15 10:16:30;;;;;;;;;;;;;;;;;;5070297;28;19966;-59
2023/10/15 10:18:56;;;;;;;;;;;;;;;;;;5070386;28;19916;-58
2023/10/15 10:21:22;;;;;;;;;;;;;;;;;;5071254;28;19952;-61
2023/10/15 10:23:48;;;;;;;;;;;;;;;;;;5067479;28;19986;-60
2023/10/15 10:26:14;;;;;;;;;;;;;;;;;;5066327;28;19982;-59
2023/10/15 10:28:40;;;;;;;;;;;;;;;;;;5068528;28;19920;-60
2023/10/15 10:31:11;;;;;;;;;;;;;;;;;;5069204;28;20042;-60
2023/10/15 10:33:37;;;;;;;;;;;;;;;;;;5068163;28;20376;-60
2023/10/15 10:36:03;;;;;;;;;;;;;;;;;;5064644;28;19964;-60
2023/10/15 10:38:29;;;;;;;;;;;;;;;;;;5065788;28;20357;-59
2023/10/15 10:40:59;;;;;;;;;;;;;;;;;;5069865;28;19971;-60
2023/10/15 10:43:26;;;;;;;;;;;;;;;;;;5068941;28;19916;-60
2023/10/15 10:45:53;;;;;;;;;;;;;;;;;;5062093;28;19916;-60
2023/10/15 10:48:19;;;;;;;;;;;;;;;;;;5074878;28;19956;-60
2023/10/15 10:50:45;;;;;;;;;;;;;;;;;;5069378;28;20408;-60
2023/10/15 10:53:11;;;;;;;;;;;;;;;;;;5069059;28;20010;-60
2023/10/15 10:55:37;;;;;;;;;;;;;;;;;;5069783;28;19920;-60
2023/10/15 10:58:03;;;;;;;;;;;;;;;;;;5072098;28;19950;-60
2023/10/15 11:00:32;;;;;;;;;;;;;;;;;;5070006;28;20345;-60
2023/10/15 11:03:02;;;;;;;1.40;1.27;;;;;;;;;;5066699;28;20443;-60
2023/10/15 11:05:31;;;;;;;1.70;1.60;;;;;;;;;;5068905;28;20260;-60
2023/10/15 11:07:57;;;;;;;1.95;1.40;;;;;;;;;;5064269;28;20192;-59
2023/10/15 11:10:25;;;;;;;2.73;1.33;;;;;;;;;;5065408;28;20246;-60
2023/10/15 11:12:51;;;;;;;1.87;1.57;;;;;;;;;;5069416;28;20234;-59
2023/10/15 11:15:17;;;;;;;1.80;1.50;;;;;;;;;;5072848;28;20758;-60
2023/10/15 11:17:56;;;;;;;2.20;1.40;;;;;;;;;;5068203;28;20253;-59
2023/10/15 11:20:24;;;;;;;1.93;1.57;;;;;;;;;;5068760;28;20173;-60
2023/10/15 11:22:53;;;;;;;1.63;1.30;;;;;;;;;;5066433;28;20573;-60
2023/10/15 11:25:21;;;;;;;4.20;1.40;;;;;;;;;;5069487;28;20192;-60
2023/10/15 11:27:48;;;;;;;1.20;1.10;;;;;;;;;;5065310;28;20185;-59
2023/10/15 11:30:14;;;;;;;1.60;1.30;;;;;;;;;;5068195;28;20232;-60
2023/10/15 11:32:40;;;;;;;1.43;1.23;;;;;;;;;;5070485;28;20404;-60
2023/10/15 11:35:07;;;;;;;1.50;1.40;;;;;;;;;;5066613;28;20522;-60
2023/10/15 11:37:35;;;;;;;2.43;1.37;;;;;;;;;;5073263;28;20258;-60
2023/10/15 11:40:01;;;;;;;1.30;1.20;;;;;;;;;;5068495;28;20223;-60
2023/10/15 11:42:28;;;;;;;1.80;1.50;;;;;;;;;;5066798;28;20184;-60
2023/10/15 11:44:56;;;;;;;1.77;1.20;;;;;;;;;;5068444;28;20196;-60
2023/10/15 11:47:24;;;;;;;1.30;1.20;;;;;;;;;;5067091;28;20231;-60
2023/10/15 11:49:51;;;;;;;3.07;1.37;;;;;;;;;;5065734;28;20181;-60
2023/10/15 11:52:22;;;;;;;1.27;1.17;;;;;;;;;;5066814;28;20589;-60
2023/10/15 11:54:51;;;;;;;2.50;1.30;;;;;;;;;;5068822;28;20633;-60
2023/10/15 11:57:21;;;;;;;2.07;1.40;;;;;;;;;;5066859;28;20204;-60
2023/10/15 11:59:48;;;;;;;2.73;2.53;;;;;;;;;;5066236;28;20608;-60
2023/10/15 12:02:14;;;;;;;2.13;2.03;;;;;;;;;;5065966;28;20203;-60
2023/10/15 12:04:40;;;;;;;1.53;1.30;;;;;;;;;;5067346;28;20187;-60
2023/10/15 12:07:15;;;;;;;3.80;1.33;;;;;;;;;;5066619;28;20177;-60
2023/10/15 12:09:44;;;;;;;2.03;1.50;;;;;;;;;;5065233;28;20171;-60
2023/10/15 12:12:11;;;;;;;3.77;1.47;;;;;;;;;;5068064;28;20184;-59
2023/10/15 12:14:37;;;;;;;1.60;1.30;;;;;;;;;;5066839;28;20198;-60
2023/10/15 12:17:04;;;;;;;1.43;1.30;;;;;;;;;;5067948;28;20503;-60
2023/10/15 12:19:30;;;;;;;1.10;1.10;;;;;;;;;;5066616;28;20670;-60
2023/10/15 12:21:59;;;;;;;1.67;1.30;;;;;;;;;;5063235;28;20216;-60
2023/10/15 12:24:26;;;;;;;2.17;1.20;;;;;;;;;;5063244;28;20658;-59
2023/10/15 12:26:53;;;;;;;1.30;1.20;;;;;;;;;;5063809;28;20624;-62
2023/10/15 12:29:28;;;;;;;1.47;1.20;;;;;;;;;;5067031;28;20285;-60
2023/10/15 12:31:55;;;;;;;2.13;1.53;;;;;;;;;;5067496;28;20492;-61
2023/10/15 12:34:21;;;;;;;1.40;1.30;;;;;;;;;;5065620;28;20180;-59
2023/10/15 12:36:47;;;;;;;2.63;1.20;;;;;;;;;;5061278;28;20739;-59
2023/10/15 12:39:15;;;;;;;1.67;1.27;;;;;;;;;;5063579;28;20204;-61
2023/10/15 12:41:41;;;;;;;1.17;1.17;;;;;;;;;;5061440;28;20665;-58
2023/10/15 12:44:10;;;;;;;1.40;1.30;;;;;;;;;;5067006;28;20187;-58
2023/10/15 12:46:37;;;;;;;1.40;1.30;;;;;;;;;;5065945;28;20615;-58
2023/10/15 12:49:03;;;;;;;1.30;1.20;;;;;;;;;;5067720;28;20257;-59
2023/10/15 12:51:30;;;;;;;3.17;1.30;;;;;;;;;;5067590;28;20569;-58
2023/10/15 12:53:56;;;;;;;1.73;1.27;;;;;;;;;;5064563;28;20202;-58
2023/10/15 12:56:24;;;;;;;1.20;1.10;;;;;;;;;;5067228;28;20208;-58
2023/10/15 12:58:50;;;;;;;1.30;1.20;;;;;;;;;;5065771;28;20203;-58
2023/10/15 13:01:20;;;;;;;3.20;1.30;;;;;;;;;;5065830;28;20176;-58
2023/10/15 13:03:49;;;;;;;1.30;1.20;;;;;;;;;;5065304;28;20269;-58
2023/10/15 13:06:19;;;;;;;1.70;1.50;;;;;;;;;;5063375;28;20677;-57
2023/10/15 13:08:46;;;;;;;1.73;1.50;;;;;;;;;;5063348;28;20188;-58
2023/10/15 13:11:13;;;;;;;1.93;1.20;;;;;;;;;;5067989;28;20241;-58
2023/10/15 13:13:40;;;;;;;2.80;1.57;;;;;;;;;;5067667;28;20172;-57
2023/10/15 13:16:08;;;;;;;1.53;1.10;;;;;;;;;;5069727;28;20183;-58
2023/10/15 13:18:38;;;;;;;1.13;1.13;;;;;;;;;;5067368;28;20196;-57
2023/10/15 13:21:04;;;;;;;1.50;1.40;;;;;;;;;;5066311;28;20192;-58
2023/10/15 13:23:33;;;;;;;1.77;1.40;;;;;;;;;;5065978;28;20371;-57
2023/10/15 13:25:59;;;;;;;2.23;1.90;;;;;;;;;;5065474;28;20181;-58
2023/10/15 13:28:25;;;;;;;1.67;1.20;;;;;;;;;;5065951;28;20177;-57
2023/10/15 13:30:51;;;;;;;2.30;1.50;;;;;;;;;;5067011;28;20216;-57
2023/10/15 13:33:17;;;;;;;1.53;1.33;;;;;;;;;;5065139;28;20191;-57
2023/10/15 13:35:43;;;;;;;2.10;1.40;;;;;;;;;;5066088;28;20338;-57
2023/10/15 13:38:10;;;;;;;1.57;1.23;;;;;;;;;;5066230;28;20002;-58
2023/10/15 13:40:38;;;;;;;;;;;;;;;;;;5066738;28;20636;-57
2023/10/15 13:43:04;;;;;;;;;;;;;;;;;;5066298;28;19909;-58
2023/10/15 13:45:30;;;;;;;;;;;;;;;;;;5067057;28;19915;-58
2023/10/15 13:47:56;;;;;;;;;;;;;;;;;;5067062;28;19948;-58
2023/10/15 13:50:22;;;;;;;;;;;;;;;;;;5066159;28;19912;-58
2023/10/15 13:52:49;;;;;;;2.73;1.30;;;;;;;;;;5065333;28;20690;-57
2023/10/15 13:55:15;;;;;;;;;;;;;;;;;;5065035;28;20173;-58
2023/10/15 13:57:41;;;;;;;1.50;1.40;;;;;;;;;;5065649;28;20122;-57
2023/10/15 14:00:15;;;;;;;;;;;;;;;;;;5065668;28;20508;-58
2023/10/15 14:02:41;;;;;;;;;;;;;;;;;;5063759;28;19915;-58
2023/10/15 14:05:08;;;;;;;;;;;;;;;;;;5066779;28;19955;-57
2023/10/15 14:07:34;;;;;;;;;;;;;;;;;;5063133;28;19971;-57
2023/10/15 14:10:00;;;;;;;;;;;;;;;;;;5066455;28;19960;-57
2023/10/15 14:12:26;;;;;;;;;;;;;;;;;;5067204;28;19952;-57
2023/10/15 14:14:52;;;;;;;;;;;;;;;;;;5067096;28;19916;-57
2023/10/15 14:17:18;;;;;;;;;;;;;;;;;;5066350;28;19957;-57
2023/10/15 14:19:44;;;;;;;;;;;;;;;;;;5065721;28;20039;-58
2023/10/15 14:22:10;;;;;;;;;;;;;;;;;;5057964;28;20433;-57
2023/10/15 14:24:36;;;;;;;;;;;;;;;;;;5066922;28;20351;-57
2023/10/15 14:27:02;;;;;;;;;;;;;;;;;;5065944;28;20003;-57
2023/10/15 14:29:28;;;;;;;;;;;;;;;;;;5065494;28;19995;-57
2023/10/15 14:31:54;;;;;;;;;;;;;;;;;;5067085;28;19951;-57
2023/10/15 14:34:20;;;;;;;;;;;;;;;;;;5067226;28;19962;-57
2023/10/15 14:36:48;;;;;;;;;;;;;;;;;;5065221;28;20380;-57
2023/10/15 14:39:17;;;;;;;;;;;;;;;;;;5065671;28;19913;-58
2023/10/15 14:41:43;;;;;;;;;;;;;;;;;;5065627;28;19947;-58
2023/10/15 14:44:09;;;;;;;;;;;;;;;;;;5065869;28;19955;-57
2023/10/15 14:46:37;;;;;;;;;;;;;;;;;;5069978;28;20457;-58
2023/10/15 14:49:04;;;;;;;;;;;;;;;;;;5065054;28;19988;-57
2023/10/15 14:51:30;;;;;;;;;;;;;;;;;;5070130;28;19913;-58
2023/10/15 14:53:56;;;;;;;;;;;;;;;;;;5069395;28;20016;-60
2023/10/15 14:56:23;;;;;;;;;;;;;;;;;;5071172;28;20011;-57
2023/10/15 14:58:49;;;;;;;;;;;;;;;;;;5069652;28;19957;-57
2023/10/15 15:01:15;;;;;;;;;;;;;;;;;;5069295;28;20008;-57
2023/10/15 15:03:41;;;;;;;;;;;;;;;;;;5068899;28;19999;-56
2023/10/15 15:06:09;;;;;;;;;;;;;;;;;;5069695;28;19999;-57
2023/10/15 15:08:35;;;;;;;;;;;;;;;;;;5069651;28;20388;-57
2023/10/15 15:11:01;;;;;;;;;;;;;;;;;;5067695;28;19908;-57
2023/10/15 15:13:27;;;;;;;;;;;;;;;;;;5066414;28;19913;-55
2023/10/15 15:15:56;;;;;;;;;;;;;;;;;;5063536;28;19912;-57
2023/10/15 15:18:21;;;;;;;;;;;;;;;;;;5068864;28;20275;-57